Time;durP1;ratioP1;P1;durP2;ratioP2;P2;SDS_P1;SDS_P2;PMS_P1;PMS_P2;Temp;Humidity;BMP_temperature;BMP_pressure;BME280_temperature;BME280_humidity;BME280_pressure;Samples;Min_cycle;Max_cycle;Signal;HPM_P1;HPM_P2
2022/11/07 00:00:51;;;;;;;17.67;16.60;;;3.90;99.90;;;;;;4229702;28;20066;-81
2022/11/07 00:03:10;;;;;;;16.20;15.05;;;3.90;99.90;;;;;;4215920;28;20047;-81
2022/11/07 00:05:31;;;;;;;17.73;16.92;;;3.90;99.90;;;;;;4227108;28;20389;-81
2022/11/07 00:07:50;;;;;;;17.02;16.02;;;3.90;99.90;;;;;;4234252;28;20039;-81
2022/11/07 00:10:10;;;;;;;16.95;15.75;;;3.90;99.90;;;;;;4229952;28;20062;-81
2022/11/07 00:12:30;;;;;;;18.50;17.23;;;3.70;99.90;;;;;;4220774;28;20078;-81
2022/11/07 00:14:49;;;;;;;17.85;16.88;;;3.60;99.90;;;;;;4234603;28;20281;-81
2022/11/07 00:17:09;;;;;;;16.55;15.55;;;3.60;99.90;;;;;;4236772;28;20258;-81
2022/11/07 00:19:29;;;;;;;17.88;16.83;;;3.50;99.90;;;;;;4220749;28;20259;-81
2022/11/07 00:21:49;;;;;;;17.75;16.45;;;3.40;99.90;;;;;;4231729;28;20255;-81
2022/11/07 00:24:09;;;;;;;18.70;17.48;;;3.30;99.90;;;;;;4229697;28;20089;-81
2022/11/07 00:26:29;;;;;;;16.35;15.48;;;3.20;99.90;;;;;;4229271;28;20034;-81
2022/11/07 00:28:49;;;;;;;19.88;18.80;;;3.20;99.90;;;;;;4230331;28;20067;-80
2022/11/07 00:31:11;;;;;;;17.27;16.30;;;3.10;99.90;;;;;;4227345;28;20135;-81
2022/11/07 00:33:31;;;;;;;19.40;18.35;;;3.00;99.90;;;;;;4219592;28;20047;-81
2022/11/07 00:35:51;;;;;;;18.00;17.08;;;3.00;99.90;;;;;;4235893;28;20286;-81
2022/11/07 00:38:11;;;;;;;17.65;16.58;;;3.20;99.90;;;;;;4216344;28;20055;-81
2022/11/07 00:40:30;;;;;;;15.55;14.98;;;3.10;99.90;;;;;;4229948;28;20046;-81
2022/11/07 00:42:50;;;;;;;14.10;13.65;;;3.00;99.90;;;;;;4232056;28;20065;-81
2022/11/07 00:45:10;;;;;;;11.32;11.02;;;3.10;99.90;;;;;;4230919;28;20051;-81
2022/11/07 00:47:30;;;;;;;12.18;11.43;;;3.10;99.90;;;;;;4230378;28;20090;-81
2022/11/07 00:49:50;;;;;;;12.40;11.88;;;3.00;99.90;;;;;;4228783;28;20050;-81
2022/11/07 00:52:09;;;;;;;11.82;11.43;;;3.00;99.90;;;;;;4231777;28;20038;-81
2022/11/07 00:54:29;;;;;;;10.23;9.93;;;3.10;99.90;;;;;;4225550;28;20055;-81
2022/11/07 00:56:48;;;;;;;10.10;9.60;;;3.10;99.90;;;;;;4230553;28;20043;-81
2022/11/07 00:59:08;;;;;;;10.57;10.38;;;3.20;99.90;;;;;;4230280;28;20074;-81
2022/11/07 01:01:30;;;;;;;10.55;9.93;;;3.10;99.90;;;;;;4227876;28;20058;-81
2022/11/07 01:06:31;;;;;;;12.20;11.43;;;3.00;99.90;;;;;;4226245;28;20315;-81
2022/11/07 01:08:53;;;;;;;12.18;11.75;;;2.90;99.90;;;;;;4212101;28;20059;-81
2022/11/07 01:11:13;;;;;;;14.02;13.25;;;2.90;99.90;;;;;;4211754;28;20104;-81
2022/11/07 01:13:34;;;;;;;15.32;14.70;;;2.80;99.90;;;;;;4213410;28;20048;-81
2022/11/07 01:15:53;;;;;;;15.75;15.13;;;2.80;99.90;;;;;;4218610;28;20047;-81
2022/11/07 01:18:13;;;;;;;16.70;16.08;;;2.70;99.90;;;;;;4217579;28;20054;-81
2022/11/07 01:20:33;;;;;;;14.77;14.15;;;2.70;99.90;;;;;;4229699;28;20051;-81
2022/11/07 01:22:53;;;;;;;13.30;12.73;;;2.70;99.90;;;;;;4230703;28;20042;-81
2022/11/07 01:25:12;;;;;;;15.13;14.43;;;2.70;99.90;;;;;;4235761;28;20364;-81
2022/11/07 01:27:32;;;;;;;15.88;15.18;;;2.70;99.90;;;;;;4226755;28;20108;-81
2022/11/07 01:29:52;;;;;;;13.18;12.57;;;2.80;99.90;;;;;;4219731;28;20109;-81
2022/11/07 01:32:11;;;;;;;14.70;13.80;;;2.90;99.90;;;;;;4221087;28;20089;-81
2022/11/07 01:34:31;;;;;;;17.75;17.02;;;2.80;99.90;;;;;;4232057;28;20051;-81
2022/11/07 01:36:50;;;;;;;18.98;17.77;;;2.60;99.90;;;;;;4213220;28;20090;-81
2022/11/07 01:39:10;;;;;;;22.63;20.83;;;2.40;99.90;;;;;;4234871;28;20046;-81
2022/11/07 01:41:34;;;;;;;22.42;21.23;;;2.20;99.90;;;;;;4218270;28;20074;-81
2022/11/07 01:44:05;;;;;;;20.48;19.70;;;2.10;99.90;;;;;;4228977;28;20315;-81
2022/11/07 01:46:31;;;;;;;24.27;23.30;;;2.10;99.90;;;;;;4234573;28;20050;-81
2022/11/07 01:49:09;;;;;;;24.83;23.83;;;2.00;99.90;;;;;;4229566;28;20047;-81
2022/11/07 01:51:33;;;;;;;21.63;20.92;;;2.30;99.90;;;;;;4236545;28;20250;-81
2022/11/07 01:53:53;;;;;;;20.90;19.98;;;2.50;99.90;;;;;;4231687;28;20102;-81
2022/11/07 01:56:16;;;;;;;19.65;18.67;;;2.60;99.90;;;;;;4222502;28;20063;-81
2022/11/07 01:58:36;;;;;;;;;;;2.60;99.90;;;;;;4228417;28;20047;-81
2022/11/07 02:00:56;;;;;;;16.13;15.40;;;2.70;99.90;;;;;;4228452;28;19978;-81
2022/11/07 02:03:18;;;;;;;15.48;14.45;;;2.80;99.90;;;;;;4216598;28;20055;-81
2022/11/07 02:06:08;;;;;;;12.87;12.03;;;2.60;99.90;;;;;;4218095;28;20265;-81
2022/11/07 02:08:31;;;;;;;15.90;15.32;;;2.50;99.90;;;;;;4231054;28;20298;-81
2022/11/07 02:10:52;;;;;;;18.85;17.95;;;2.40;99.90;;;;;;4227768;28;20236;-81
2022/11/07 02:13:18;;;;;;;18.17;17.13;;;2.40;99.90;;;;;;4223050;28;20082;-81
2022/11/07 02:15:38;;;;;;;14.85;14.35;;;2.30;99.90;;;;;;4233305;28;20039;-81
2022/11/07 02:17:59;;;;;;;14.20;13.60;;;2.50;99.90;;;;;;4228278;28;20255;-81
2022/11/07 02:20:19;;;;;;;11.25;10.80;;;2.50;99.90;;;;;;4228948;28;20364;-81
2022/11/07 02:22:56;;;;;;;11.63;11.07;;;2.60;99.90;;;;;;4218520;28;20108;-81
2022/11/07 02:25:17;;;;;;;11.57;11.00;;;2.60;99.90;;;;;;4218324;28;20074;-81
2022/11/07 02:27:38;;;;;;;13.65;13.05;;;2.50;99.90;;;;;;4213927;28;20095;-81
2022/11/07 02:30:01;;;;;;;15.00;14.27;;;2.40;99.90;;;;;;4222341;28;20121;-81
2022/11/07 02:32:21;;;;;;;14.45;14.07;;;2.30;99.90;;;;;;4234243;28;20058;-81
2022/11/07 02:34:40;;;;;;;15.40;14.73;;;2.30;99.90;;;;;;4233106;28;20064;-81
2022/11/07 02:37:05;;;;;;;15.38;14.82;;;2.20;99.90;;;;;;4232771;28;20080;-81
2022/11/07 02:39:25;;;;;;;14.25;13.55;;;2.20;99.90;;;;;;4233435;28;20042;-81
2022/11/07 02:41:46;;;;;;;15.57;14.90;;;2.20;99.90;;;;;;4229868;28;20039;-81
2022/11/07 02:44:10;;;;;;;17.85;17.10;;;2.20;99.90;;;;;;4222678;28;20051;-81
2022/11/07 02:46:30;;;;;;;19.02;18.20;;;2.20;99.90;;;;;;4235610;28;20410;-81
2022/11/07 02:48:55;;;;;;;22.02;21.13;;;2.10;99.90;;;;;;4232287;28;20089;-81
2022/11/07 02:51:15;;;;;;;21.08;20.20;;;2.10;99.90;;;;;;4231021;28;20086;-81
2022/11/07 02:53:35;;;;;;;21.13;19.88;;;2.00;99.90;;;;;;4227951;28;20128;-81
2022/11/07 02:55:55;;;;;;;20.63;19.73;;;2.10;99.90;;;;;;4232095;28;20044;-81
2022/11/07 02:58:15;;;;;;;22.45;21.52;;;2.00;99.90;;;;;;4227707;28;20047;-81
2022/11/07 03:00:35;;;;;;;23.88;22.95;;;1.90;99.90;;;;;;4226511;28;20054;-81
2022/11/07 03:02:54;;;;;;;25.27;24.27;;;1.80;99.90;;;;;;4210657;28;20436;-81
2022/11/07 03:05:16;;;;;;;23.77;22.60;;;1.80;99.90;;;;;;4230491;28;20046;-81
2022/11/07 03:07:36;;;;;;;20.35;19.70;;;1.90;99.90;;;;;;4230457;28;20054;-81
2022/11/07 03:09:56;;;;;;;18.92;18.13;;;1.90;99.90;;;;;;4229874;28;20051;-81
2022/11/07 03:12:16;;;;;;;16.13;15.52;;;2.00;99.90;;;;;;4228082;28;20111;-81
2022/11/07 03:14:36;;;;;;;16.80;16.20;;;2.20;99.90;;;;;;4226605;28;20047;-81
2022/11/07 03:16:56;;;;;;;17.15;16.48;;;2.40;99.90;;;;;;4225695;28;20408;-81
2022/11/07 03:19:15;;;;;;;18.10;17.30;;;2.40;99.90;;;;;;4232786;28;20255;-81
2022/11/07 03:21:35;;;;;;;16.92;16.13;;;2.10;99.90;;;;;;4237016;28;20042;-81
2022/11/07 03:23:55;;;;;;;17.50;16.85;;;2.00;99.90;;;;;;4230173;28;20107;-81
2022/11/07 03:26:14;;;;;;;12.27;11.77;;;2.10;99.90;;;;;;4224673;28;20039;-81
2022/11/07 03:28:34;;;;;;;19.45;18.10;;;2.10;99.90;;;;;;4222466;28;20055;-81
2022/11/07 03:30:58;;;;;;;19.90;19.17;;;2.10;99.90;;;;;;4232471;28;20039;-81
2022/11/07 03:33:18;;;;;;;22.63;21.73;;;2.00;99.90;;;;;;4232681;28;20047;-81
2022/11/07 03:35:37;;;;;;;25.75;24.60;;;1.80;99.90;;;;;;4228086;28;20286;-81
2022/11/07 03:37:57;;;;;;;27.13;26.15;;;1.70;99.90;;;;;;4228423;28;20082;-81
2022/11/07 03:40:17;;;;;;;27.90;26.75;;;1.60;99.90;;;;;;4231718;28;20369;-81
2022/11/07 03:42:38;;;;;;;25.67;24.65;;;1.60;99.90;;;;;;4230259;28;20043;-81
2022/11/07 03:44:58;;;;;;;25.63;24.55;;;1.60;99.90;;;;;;4232280;28;20047;-81
2022/11/07 03:47:18;;;;;;;24.73;23.75;;;1.50;99.90;;;;;;4215339;28;20048;-81
2022/11/07 03:49:37;;;;;;;24.65;23.75;;;1.50;99.90;;;;;;4219683;28;20113;-81
2022/11/07 03:51:57;;;;;;;25.83;25.10;;;1.40;99.90;;;;;;4219042;28;20062;-81
2022/11/07 03:54:17;;;;;;;24.17;23.17;;;1.40;99.90;;;;;;4230162;28;20189;-81
2022/11/07 03:56:36;;;;;;;22.30;21.27;;;1.40;99.90;;;;;;4225429;28;20038;-81
2022/11/07 03:58:56;;;;;;;21.33;20.52;;;1.40;99.90;;;;;;4232115;28;20046;-81
2022/11/07 04:01:16;;;;;;;20.45;19.75;;;1.40;99.90;;;;;;4227187;28;20069;-81
2022/11/07 04:03:36;;;;;;;19.98;18.48;;;1.30;99.90;;;;;;4214214;28;20056;-81
2022/11/07 04:05:56;;;;;;;18.15;17.55;;;1.30;99.90;;;;;;4235157;28;20042;-81
2022/11/07 04:08:16;;;;;;;19.45;18.73;;;1.60;99.90;;;;;;4231259;28;20239;-81
2022/11/07 04:10:35;;;;;;;17.40;16.73;;;1.40;99.90;;;;;;4229578;28;20394;-81
2022/11/07 04:18:12;;;;;;;17.35;16.83;;;1.80;99.90;;;;;;4228934;28;20108;-81
2022/11/07 04:20:31;;;;;;;17.73;16.98;;;1.60;99.90;;;;;;4222873;28;20055;-81
2022/11/07 04:22:51;;;;;;;18.75;17.92;;;1.60;99.90;;;;;;4232587;28;20430;-81
2022/11/07 04:25:11;;;;;;;20.23;19.42;;;1.70;99.90;;;;;;4214510;28;20055;-81
2022/11/07 04:27:42;;;;;;;22.05;21.23;;;1.60;99.90;;;;;;4214870;28;20051;-81
2022/11/07 04:30:25;;;;;;;21.38;20.67;;;1.50;99.90;;;;;;4229346;28;20104;-81
2022/11/07 04:32:47;;;;;;;21.58;20.98;;;1.30;99.90;;;;;;4229135;28;20042;-81
2022/11/07 04:35:07;;;;;;;22.55;21.70;;;1.20;99.90;;;;;;4229926;28;20050;-81
2022/11/07 04:37:27;;;;;;;22.15;21.55;;;1.30;99.90;;;;;;4225116;28;20043;-81
2022/11/07 04:39:47;;;;;;;22.25;21.52;;;1.40;99.90;;;;;;4218861;28;20063;-81
2022/11/07 04:42:06;;;;;;;20.27;19.58;;;1.40;99.90;;;;;;4211103;28;20046;-81
2022/11/07 04:44:26;;;;;;;17.52;16.52;;;1.30;99.90;;;;;;4225711;28;20054;-81
2022/11/07 04:46:46;;;;;;;20.70;20.00;;;1.30;99.90;;;;;;4228010;28;20046;-81
2022/11/07 04:49:05;;;;;;;19.52;19.13;;;1.30;99.90;;;;;;4231059;28;20058;-81
2022/11/07 04:51:25;;;;;;;18.15;17.83;;;1.50;99.90;;;;;;4233693;28;20063;-81
2022/11/07 04:53:46;;;;;;;22.55;21.65;;;1.40;99.90;;;;;;4234601;28;20357;-81
2022/11/07 04:56:05;;;;;;;25.08;24.30;;;1.40;99.90;;;;;;4209998;28;20062;-81
2022/11/07 04:58:25;;;;;;;24.05;23.50;;;1.30;99.90;;;;;;4232899;28;20051;-81
2022/11/07 05:00:45;;;;;;;23.17;22.48;;;1.30;99.90;;;;;;4230960;28;20050;-81
2022/11/07 05:03:05;;;;;;;21.77;20.95;;;1.40;99.90;;;;;;4225573;28;20054;-81
2022/11/07 05:05:25;;;;;;;19.33;18.83;;;1.40;99.90;;;;;;4227735;28;20050;-81
2022/11/07 05:07:46;;;;;;;18.83;18.42;;;1.60;99.90;;;;;;4231600;28;20042;-81
2022/11/07 05:10:07;;;;;;;20.70;20.10;;;1.50;99.90;;;;;;4230747;28;20407;-81
2022/11/07 05:12:31;;;;;;;19.88;19.48;;;1.40;99.90;;;;;;4235534;28;20080;-81
2022/11/07 05:14:51;;;;;;;20.85;20.35;;;1.50;99.90;;;;;;4225638;28;20085;-81
2022/11/07 05:17:15;;;;;;;19.23;18.75;;;1.60;99.90;;;;;;4227509;28;20412;-81
2022/11/07 05:19:34;;;;;;;17.50;17.20;;;1.50;99.90;;;;;;4221280;28;20043;-81
2022/11/07 05:24:32;;;;;;;9.63;9.30;;;1.60;99.90;;;;;;4235049;28;20046;-81
2022/11/07 05:26:52;;;;;;;8.95;8.85;;;1.60;99.90;;;;;;4228791;28;20128;-81
2022/11/07 05:29:11;;;;;;;14.43;14.20;;;1.70;99.90;;;;;;4230568;28;20239;-81
2022/11/07 05:31:31;;;;;;;13.10;12.90;;;1.60;99.90;;;;;;4225319;28;20074;-81
2022/11/07 05:33:51;;;;;;;11.68;11.48;;;1.60;99.90;;;;;;4227012;28;20117;-81
2022/11/07 05:36:16;;;;;;;22.52;21.92;;;1.40;99.90;;;;;;4231426;28;20050;-81
2022/11/07 05:38:36;;;;;;;22.55;21.80;;;1.30;99.90;;;;;;4229579;28;20132;-81
2022/11/07 05:40:55;;;;;;;22.25;21.75;;;1.20;99.90;;;;;;4229141;28;20066;-81
2022/11/07 05:43:15;;;;;;;20.95;20.35;;;1.20;99.90;;;;;;4230617;28;20276;-81
2022/11/07 05:45:36;;;;;;;20.65;20.27;;;1.10;99.90;;;;;;4228233;28;20059;-81
2022/11/07 05:48:01;;;;;;;22.45;21.85;;;1.30;99.90;;;;;;4228455;28;20051;-81
2022/11/07 05:50:21;;;;;;;21.65;20.95;;;1.20;99.90;;;;;;4222282;28;20075;-81
2022/11/07 05:52:40;;;;;;;20.90;20.23;;;1.10;99.90;;;;;;4227369;28;20039;-80
2022/11/07 05:55:00;;;;;;;18.50;17.98;;;1.30;99.90;;;;;;4215915;28;20050;-81
2022/11/07 05:57:20;;;;;;;18.73;18.20;;;1.40;99.90;;;;;;4225542;28;20043;-81
2022/11/07 05:59:40;;;;;;;24.50;23.40;;;1.20;99.90;;;;;;4231628;28;20058;-81
2022/11/07 06:01:59;;;;;;;16.70;15.98;;;1.10;99.90;;;;;;4229964;28;20039;-81
2022/11/07 06:04:20;;;;;;;23.95;23.15;;;1.20;99.90;;;;;;4226269;28;20067;-81
2022/11/07 06:06:40;;;;;;;27.83;26.77;;;1.10;99.90;;;;;;4225750;28;20117;-81
2022/11/07 06:08:59;;;;;;;30.38;29.25;;;1.10;99.90;;;;;;4226274;28;20051;-81
2022/11/07 06:11:19;;;;;;;31.75;30.38;;;1.20;99.90;;;;;;4227531;28;20226;-82
2022/11/07 06:13:39;;;;;;;30.63;29.40;;;1.30;99.90;;;;;;4221607;28;20066;-81
2022/11/07 06:15:58;;;;;;;28.35;27.35;;;1.40;99.90;;;;;;4227782;28;20090;-81
2022/11/07 06:18:20;;;;;;;21.52;20.73;;;1.30;99.90;;;;;;4233256;28;20082;-83
2022/11/07 06:20:39;;;;;;;25.70;25.00;;;1.30;99.90;;;;;;4220879;28;20090;-83
2022/11/07 06:23:01;;;;;;;25.50;24.55;;;1.30;99.90;;;;;;4230479;28;20040;-83
2022/11/07 06:25:21;;;;;;;27.10;26.08;;;1.40;99.90;;;;;;4234362;28;20065;-83
2022/11/07 06:27:41;;;;;;;22.02;21.23;;;1.40;99.90;;;;;;4232220;28;20412;-83
2022/11/07 06:30:00;;;;;;;26.95;26.00;;;1.30;99.90;;;;;;4231134;28;20051;-83
2022/11/07 06:32:20;;;;;;;24.10;23.30;;;1.50;99.90;;;;;;4236198;28;20043;-83
2022/11/07 06:34:40;;;;;;;20.85;20.45;;;1.50;99.90;;;;;;4235646;28;20366;-83
2022/11/07 06:37:00;;;;;;;16.70;16.25;;;1.50;99.90;;;;;;4231620;28;20315;-83
2022/11/07 06:39:23;;;;;;;24.23;23.52;;;1.50;99.90;;;;;;4233473;28;20066;-83
2022/11/07 06:41:42;;;;;;;26.10;24.77;;;1.50;99.90;;;;;;4219932;28;20342;-85
2022/11/07 06:44:02;;;;;;;27.83;26.75;;;1.40;99.90;;;;;;4213587;28;20043;-85
2022/11/07 06:46:24;;;;;;;28.20;27.20;;;1.40;99.90;;;;;;4226434;28;20039;-85
2022/11/07 06:48:44;;;;;;;33.33;31.73;;;1.20;99.90;;;;;;4235775;28;20081;-85
2022/11/07 06:51:05;;;;;;;27.38;26.55;;;1.20;99.90;;;;;;4224934;28;20077;-85
2022/11/07 06:53:26;;;;;;;23.35;22.55;;;1.20;99.90;;;;;;4229683;28;20059;-85
2022/11/07 06:55:46;;;;;;;20.33;19.63;;;1.30;99.90;;;;;;4227704;28;20082;-85
2022/11/07 06:58:07;;;;;;;21.70;20.92;;;1.40;99.90;;;;;;4230074;28;20137;-85
2022/11/07 07:00:28;;;;;;;13.60;13.18;;;1.50;99.90;;;;;;4231218;28;20066;-85
2022/11/07 07:02:48;;;;;;;9.48;9.10;;;1.70;99.90;;;;;;4220323;28;20429;-85
2022/11/07 07:05:18;;;;;;;7.05;6.95;;;1.70;99.90;;;;;;4222481;28;20424;-85
2022/11/07 07:07:40;;;;;;;10.00;9.80;;;1.70;99.90;;;;;;4224704;28;20070;-85
2022/11/07 07:10:00;;;;;;;8.45;8.35;;;1.70;99.90;;;;;;4213976;28;20370;-85
2022/11/07 07:12:19;;;;;;;12.20;11.90;;;1.80;99.90;;;;;;4224148;28;20078;-85
2022/11/07 07:14:39;;;;;;;10.88;10.68;;;1.80;99.90;;;;;;4227166;28;20301;-85
2022/11/07 07:16:59;;;;;;;16.65;15.77;;;1.90;99.90;;;;;;4225028;28;20285;-84
2022/11/07 07:19:19;;;;;;;70.30;62.20;;;1.90;99.90;;;;;;4233056;28;20047;-85
2022/11/07 07:21:39;;;;;;;26.40;24.45;;;2.00;99.90;;;;;;4229413;28;20038;-85
2022/11/07 07:23:59;;;;;;;33.85;30.80;;;2.00;99.90;;;;;;4225567;28;20414;-85
2022/11/07 07:26:19;;;;;;;22.50;20.80;;;2.10;99.90;;;;;;4219683;28;20051;-85
2022/11/07 07:28:39;;;;;;;7.35;7.25;;;2.30;99.90;;;;;;4233825;28;20055;-85
2022/11/07 07:31:29;;;;;;;5.88;5.78;;;2.50;99.90;;;;;;4220916;28;20291;-85
2022/11/07 07:33:49;;;;;;;4.25;4.22;;;2.60;99.90;;;;;;4226058;28;20039;-85
2022/11/07 07:36:10;;;;;;;6.53;6.43;;;2.80;99.90;;;;;;4216393;28;20055;-85
2022/11/07 07:38:33;;;;;;;7.72;7.53;;;3.20;99.90;;;;;;4232753;28;20044;-85
2022/11/07 07:40:53;;;;;;;7.53;7.32;;;3.40;99.90;;;;;;4216884;28;20054;-85
2022/11/07 07:43:13;;;;;;;7.00;6.55;;;3.50;99.90;;;;;;4224343;28;20051;-85
2022/11/07 07:45:33;;;;;;;7.45;7.20;;;3.40;99.90;;;;;;4233329;28;20050;-85
2022/11/07 07:48:00;;;;;;;6.68;6.38;;;3.40;99.90;;;;;;4230000;28;20265;-85
2022/11/07 07:50:20;;;;;;;8.90;8.60;;;3.40;99.90;;;;;;4216741;28;20036;-86
2022/11/07 07:52:40;;;;;;;9.23;8.65;;;3.40;99.90;;;;;;4224330;28;20066;-85
2022/11/07 07:54:59;;;;;;;8.43;7.93;;;3.40;99.90;;;;;;4223168;28;20420;-85
2022/11/07 07:57:19;;;;;;;8.85;8.30;;;3.40;99.90;;;;;;4223139;28;20065;-85
2022/11/07 07:59:38;;;;;;;8.80;8.48;;;3.50;99.90;;;;;;4223068;28;20051;-85
2022/11/07 08:01:58;;;;;;;7.22;7.03;;;3.60;99.90;;;;;;4217014;28;20035;-85
2022/11/07 08:04:18;;;;;;;7.72;7.50;;;3.70;99.90;;;;;;4212519;28;20704;-85
2022/11/07 08:06:38;;;;;;;9.18;8.82;;;3.70;99.90;;;;;;4215424;28;20082;-85
2022/11/07 08:08:58;;;;;;;10.20;9.57;;;3.70;99.90;;;;;;4224575;28;20393;-85
2022/11/07 08:11:18;;;;;;;9.52;9.07;;;3.70;99.90;;;;;;4212203;28;20036;-85
2022/11/07 08:13:38;;;;;;;8.68;8.45;;;3.90;99.90;;;;;;4213978;28;20307;-85
2022/11/07 08:16:00;;;;;;;8.15;7.88;;;3.90;99.90;;;;;;4232179;28;20103;-85
2022/11/07 08:18:21;;;;;;;9.00;8.63;;;4.00;99.90;;;;;;4228219;28;20047;-85
2022/11/07 08:20:41;;;;;;;10.07;9.57;;;4.10;99.90;;;;;;4213556;28;20054;-86
2022/11/07 08:23:06;;;;;;;7.63;7.43;;;4.20;99.90;;;;;;4209580;28;20131;-86
2022/11/07 08:25:35;;;;;;;7.50;7.22;;;4.30;99.90;;;;;;4227755;28;20074;-85
2022/11/07 08:27:55;;;;;;;6.80;6.63;;;4.60;99.90;;;;;;4231272;28;20120;-85
2022/11/07 08:30:14;;;;;;;5.50;5.40;;;4.70;99.90;;;;;;4232950;28;20142;-85
2022/11/07 08:32:37;;;;;;;4.90;4.80;;;4.80;99.90;;;;;;4231711;28;20101;-85
2022/11/07 08:34:57;;;;;;;5.82;5.63;;;4.90;99.90;;;;;;4215332;28;20299;-85
2022/11/07 08:37:16;;;;;;;3.92;3.92;;;4.90;99.90;;;;;;4230129;28;20098;-85
2022/11/07 08:39:37;;;;;;;4.28;4.07;;;5.10;99.90;;;;;;4219541;28;20274;-85
2022/11/07 08:41:56;;;;;;;4.38;4.25;;;5.30;99.90;;;;;;4216848;28;20063;-85
2022/11/07 08:44:16;;;;;;;5.30;5.07;;;5.40;99.90;;;;;;4223673;28;20066;-85
2022/11/07 08:46:36;;;;;;;5.15;4.82;;;5.60;99.90;;;;;;4230386;28;20051;-85
2022/11/07 08:48:55;;;;;;;5.38;5.25;;;5.70;99.90;;;;;;4223445;28;20382;-85
2022/11/07 08:51:15;;;;;;;4.07;3.45;;;5.80;99.90;;;;;;4224057;28;20063;-85
2022/11/07 08:53:35;;;;;;;5.53;5.25;;;5.90;99.90;;;;;;4232582;28;20046;-84
2022/11/07 08:56:07;;;;;;;4.10;4.00;;;6.00;99.90;;;;;;4226433;28;20047;-84
2022/11/07 08:58:27;;;;;;;5.13;5.03;;;6.10;99.90;;;;;;4221851;28;20382;-84
2022/11/07 09:00:49;;;;;;;5.30;4.88;;;6.20;99.90;;;;;;4213652;28;20051;-84
2022/11/07 09:03:13;;;;;;;5.38;4.97;;;6.30;99.90;;;;;;4234171;28;20070;-85
2022/11/07 09:05:55;;;;;;;4.47;4.37;;;6.40;99.90;;;;;;4227043;28;20128;-85
2022/11/07 09:08:14;;;;;;;5.40;5.28;;;6.60;99.90;;;;;;4225231;28;20293;-85
2022/11/07 09:10:34;;;;;;;4.72;4.63;;;6.70;99.90;;;;;;4229594;28;20046;-85
2022/11/07 09:12:54;;;;;;;7.93;7.47;;;6.80;99.90;;;;;;4214049;28;20239;-84
2022/11/07 09:15:14;;;;;;;3.42;3.40;;;6.90;99.90;;;;;;4222407;28;20051;-84
2022/11/07 09:17:34;;;;;;;4.70;4.60;;;7.00;99.90;;;;;;4231198;28;20360;-84
2022/11/07 09:19:53;;;;;;;5.25;5.15;;;7.10;99.90;;;;;;4222103;28;20160;-84
2022/11/07 09:22:13;;;;;;;7.15;6.85;;;7.20;99.90;;;;;;4232293;28;20103;-84
2022/11/07 09:24:33;;;;;;;5.82;5.25;;;7.30;99.90;;;;;;4213146;28;20277;-84
2022/11/07 09:26:53;;;;;;;5.30;5.00;;;7.50;99.90;;;;;;4217111;28;20035;-85
2022/11/07 09:29:12;;;;;;;4.25;4.05;;;7.60;99.90;;;;;;4231475;28;20094;-85
2022/11/07 09:31:32;;;;;;;4.05;3.95;;;7.80;99.90;;;;;;4231907;28;20043;-85
2022/11/07 09:33:52;;;;;;;3.33;3.33;;;8.00;99.90;;;;;;4227230;28;20363;-85
2022/11/07 09:36:12;;;;;;;4.32;4.22;;;8.10;99.90;;;;;;4215605;28;20043;-85
2022/11/07 09:38:31;;;;;;;2.90;2.90;;;8.30;99.90;;;;;;4221620;28;20342;-85
2022/11/07 09:40:54;;;;;;;2.67;2.67;;;8.50;99.90;;;;;;4222085;28;20051;-85
2022/11/07 09:43:38;;;;;;;2.55;2.45;;;8.70;99.90;;;;;;4214418;28;20087;-85
2022/11/07 09:46:24;;;;;;;2.38;2.38;;;9.00;99.90;;;;;;4215636;28;20047;-85
2022/11/07 09:48:54;;;;;;;2.92;2.72;;;9.10;99.90;;;;;;4218220;28;20039;-84
2022/11/07 09:51:33;;;;;;;3.35;3.25;;;9.30;99.90;;;;;;4218914;28;20386;-84
2022/11/07 09:53:58;;;;;;;1.90;1.90;;;9.60;99.90;;;;;;4228772;28;20081;-84
2022/11/07 09:56:18;;;;;;;2.60;2.60;;;9.80;99.90;;;;;;4234826;28;20084;-84
2022/11/07 09:58:43;;;;;;;3.17;3.13;;;10.00;99.90;;;;;;4227241;28;20081;-84
2022/11/07 10:01:05;;;;;;;3.25;3.15;;;10.40;99.90;;;;;;4212917;28;20087;-84
2022/11/07 10:03:25;;;;;;;6.35;6.07;;;10.80;99.90;;;;;;4238064;28;20043;-84
2022/11/07 10:05:58;;;;;;;1.55;1.55;;;10.90;99.90;;;;;;4236167;28;20074;-84
2022/11/07 10:08:33;;;;;;;2.13;2.10;;;11.20;99.90;;;;;;4217162;28;20251;-84
2022/11/07 10:11:22;;;;;;;3.55;3.45;;;11.30;99.90;;;;;;4215169;28;20344;-84
2022/11/07 10:14:18;;;;;;;1.30;1.20;;;11.50;99.90;;;;;;4215621;28;20039;-84
2022/11/07 10:16:46;;;;;;;1.20;1.20;;;11.70;99.90;;;;;;4225196;28;20039;-84
2022/11/07 10:19:15;;;;;;;1.10;1.10;;;11.90;99.90;;;;;;4221974;28;20047;-84
2022/11/07 10:21:47;;;;;;;1.08;1.08;;;12.40;99.90;;;;;;4228698;28;20035;-84
2022/11/07 10:24:28;;;;;;;1.10;1.10;;;12.80;99.90;;;;;;4232437;28;20034;-84
2022/11/07 10:26:48;;;;;;;1.10;1.10;;;13.00;99.90;;;;;;4232494;28;20265;-84
2022/11/07 10:29:19;;;;;;;1.10;1.10;;;13.20;99.90;;;;;;4223664;28;20282;-84
2022/11/07 10:31:43;;;;;;;2.00;1.90;;;13.20;99.90;;;;;;4234831;28;20364;-85
2022/11/07 10:34:22;;;;;;;1.17;1.10;;;13.50;99.90;;;;;;4222974;28;20306;-85
2022/11/07 10:36:41;;;;;;;1.95;1.27;;;13.80;99.90;;;;;;4232000;28;20106;-85
2022/11/07 10:39:15;;;;;;;1.00;1.00;;;14.20;99.90;;;;;;4214582;28;20071;-85
2022/11/07 10:41:36;;;;;;;1.95;1.52;;;14.40;99.90;;;;;;4219495;28;20052;-84
2022/11/07 10:44:02;;;;;;;1.20;1.10;;;14.40;99.90;;;;;;4234485;28;20078;-86
2022/11/07 10:46:41;;;;;;;1.70;1.20;;;14.70;99.90;;;;;;4233338;28;20124;-86
2022/11/07 10:49:02;;;;;;;1.17;1.10;;;14.80;99.90;;;;;;4226500;28;20097;-86
2022/11/07 10:51:38;;;;;;;1.10;1.10;;;14.90;99.90;;;;;;4215994;28;20232;-86
2022/11/07 10:53:58;;;;;;;1.00;1.00;;;15.00;99.90;;;;;;4211864;28;20107;-86
2022/11/07 10:56:18;;;;;;;1.30;1.30;;;15.00;99.90;;;;;;4234597;28;20374;-86
2022/11/07 10:58:45;;;;;;;9.35;1.63;;;15.20;99.90;;;;;;4225056;28;20051;-86
2022/11/07 11:01:07;;;;;;;1.10;1.10;;;15.10;99.90;;;;;;4229736;28;20393;-86
2022/11/07 11:03:37;;;;;;;1.20;1.10;;;15.20;99.90;;;;;;4215198;28;20051;-86
2022/11/07 11:06:25;;;;;;;6.57;1.20;;;15.20;99.90;;;;;;4218537;28;20038;-86
2022/11/07 11:08:47;;;;;;;2.28;1.00;;;15.30;99.90;;;;;;4230233;28;20120;-86
2022/11/07 11:11:31;;;;;;;0.90;0.90;;;15.40;99.90;;;;;;4219989;28;20103;-86
2022/11/07 11:14:02;;;;;;;1.65;1.00;;;15.40;99.90;;;;;;4229214;28;20111;-86
2022/11/07 11:16:29;;;;;;;1.85;1.10;;;15.90;99.90;;;;;;4221737;28;20081;-86
2022/11/07 11:18:54;;;;;;;1.10;0.98;;;15.80;99.90;;;;;;4234790;28;20278;-86
2022/11/07 11:21:15;;;;;;;1.00;1.00;;;16.20;99.90;;;;;;4220265;28;20039;-86
2022/11/07 11:23:36;;;;;;;2.13;1.00;;;16.30;99.90;;;;;;4219416;28;20066;-86
2022/11/07 11:26:04;;;;;;;1.00;1.00;;;16.20;99.90;;;;;;4230450;28;20046;-86
2022/11/07 11:28:33;;;;;;;0.90;0.90;;;16.00;99.90;;;;;;4222383;28;20146;-86
2022/11/07 11:31:07;;;;;;;0.90;0.90;;;16.00;99.90;;;;;;4230210;28;20078;-86
2022/11/07 11:33:36;;;;;;;1.00;1.00;;;16.00;99.90;;;;;;4224820;28;20043;-86
2022/11/07 11:36:02;;;;;;;1.10;1.10;;;16.00;99.90;;;;;;4219723;28;20044;-86
2022/11/07 11:38:37;;;;;;;0.98;0.98;;;16.20;99.90;;;;;;4216007;28;20043;-86
2022/11/07 11:41:05;;;;;;;0.93;0.90;;;16.20;99.90;;;;;;4222244;28;20109;-86
2022/11/07 11:43:54;;;;;;;1.05;1.05;;;16.30;99.90;;;;;;4227801;28;20329;-85
2022/11/07 11:46:26;;;;;;;;;;;16.70;99.90;;;;;;4232210;28;20043;-86
2022/11/07 11:49:01;;;;;;;0.82;0.82;;;16.90;99.90;;;;;;4217008;28;19923;-85
2022/11/07 11:51:29;;;;;;;0.80;0.80;;;16.50;99.90;;;;;;4229293;28;20035;-86
2022/11/07 11:53:49;;;;;;;1.10;1.00;;;16.70;99.90;;;;;;4227067;28;20035;-84
2022/11/07 11:56:32;;;;;;;1.33;0.90;;;16.90;99.90;;;;;;4223666;28;20065;-84
2022/11/07 11:58:52;;;;;;;;;;;16.80;99.90;;;;;;4217892;28;20078;-84
2022/11/07 12:01:55;;;;;;;1.20;1.13;;;16.90;99.90;;;;;;4226257;28;19937;-84
2022/11/07 12:04:31;;;;;;;0.80;0.80;;;17.10;99.90;;;;;;4187768;28;20103;-84
2022/11/07 12:07:04;;;;;;;0.80;0.80;;;17.20;99.90;;;;;;4222417;28;20047;-84
2022/11/07 12:09:43;;;;;;;0.90;0.90;;;17.10;99.90;;;;;;4218787;28;20152;-84
2022/11/07 12:12:18;;;;;;;1.38;1.27;;;17.00;99.90;;;;;;4226948;28;20046;-84
2022/11/07 12:14:45;;;;;;;1.23;0.88;;;17.10;99.90;;;;;;4222738;28;20254;-84
2022/11/07 12:17:11;;;;;;;0.90;0.90;;;17.40;99.90;;;;;;4233402;28;20084;-85
2022/11/07 12:19:36;;;;;;;0.90;0.90;;;17.30;99.90;;;;;;4213581;28;20378;-84
2022/11/07 12:22:27;;;;;;;0.90;0.90;;;17.50;99.90;;;;;;4212012;28;20047;-84
2022/11/07 12:24:51;;;;;;;0.98;0.80;;;17.40;99.90;;;;;;4216103;28;20070;-84
2022/11/07 12:27:40;;;;;;;0.90;0.90;;;17.40;99.90;;;;;;4217142;28;20051;-85
2022/11/07 12:30:21;;;;;;;0.90;0.90;;;17.00;99.90;;;;;;4189154;28;20074;-85
2022/11/07 12:33:11;;;;;;;1.73;0.90;;;17.10;99.90;;;;;;4227211;28;20039;-84